Data for 05/05/2017

Time Sea-Level Adjusted Pressure Absolute Pressure Temperature Relative Humidity Dew Point   
(mb) (inHg) (mb) (inHg) (C) (F) (%) (C) (F)
00:05 1019 30.09 848 25.04 13.6 56.4 30 -3.5 25.7
00:10 1019 30.09 848 25.04 13.2 55.7 31 -3.7 25.4
00:15 1019 30.09 848 25.04 13.2 55.7 30 -4 24.7
00:20 1019 30.09 848 25.04 13.3 55.9 30 -4 24.8
00:25 1019 30.09 848 25.04 13.3 56 28 -4.7 23.6
00:30 1019 30.09 848 25.04 13.6 56.5 27 -4.9 23.2
00:35 1019 30.09 848 25.04 13.7 56.6 28 -4.4 24
00:40 1019 30.09 848 25.04 13.5 56.2 28 -4.7 23.6
00:45 1019 30.09 848 25.04 13.5 56.3 28 -4.6 23.7
00:50 1019 30.09 848 25.04 13.9 56.9 27 -4.7 23.5
00:55 1019 30.09 848 25.04 13.5 56.4 28 -4.6 23.7
01:00 1019 30.09 848 25.04 13.7 56.7 27 -4.7 23.5
01:05 1019 30.09 848 25.04 13.8 56.8 27 -4.8 23.4
01:10 1019 30.09 848 25.04 14 57.2 27 -4.5 23.9
01:15 1019 30.09 848 25.04 13.7 56.6 28 -4.4 24.2
01:20 1019 30.09 848 25.04 13.4 56 29 -4 24.7
01:25 1019 30.09 848 25.04 13.2 55.7 29 -4.4 24
01:30 1019 30.09 848 25.04 13.2 55.8 29 -4.2 24.4
01:35 1019 30.09 848 25.04 12.8 55 32 -3.6 25.6
01:40 1019 30.09 848 25.04 12.2 53.9 32 -4 24.8
01:45 1019 30.09 848 25.04 12.5 54.4 32 -3.7 25.4
01:50 1019 30.09 848 25.04 12.1 53.9 33 -3.8 25.2
01:55 1019 30.09 848 25.04 12.1 53.7 33 -3.7 25.3
02:00 1019 30.09 848 25.04 12.1 53.7 33 -3.7 25.4
02:05 1019 30.09 848 25.04 12.1 53.7 33 -3.6 25.5
02:10 1019 30.09 848 25.04 11.9 53.5 33 -3.8 25.2
02:15 1019 30.09 848 25.04 11.8 53.3 34 -3.4 25.8
02:20 1019 30.09 848 25.04 11.7 53.1 35 -3.4 25.9
02:25 1019 30.09 848 25.04 11.6 52.9 34 -3.8 25.2
02:30 1019 30.09 848 25.04 11.8 53.3 34 -3.6 25.5
02:35 1019 30.09 848 25.04 11.8 53.3 34 -3.3 26
02:40 1019 30.09 848 25.04 11.7 53 35 -3.1 26.4
02:45 1019 30.09 848 25.04 11.5 52.7 36 -2.9 26.8
02:50 1019 30.09 848 25.04 11.4 52.6 36 -3 26.5
02:55 1019 30.09 848 25.04 11.4 52.5 36 -3.1 26.5
03:00 1019 30.09 848 25.04 11.5 52.6 36 -2.9 26.8
03:05 1018 30.06 848 25.04 11.4 52.6 37 -2.8 27
03:10 1018 30.06 848 25.04 11.3 52.3 37 -2.8 27
03:15 1018 30.06 848 25.04 11.1 52 38 -2.7 27.1
03:20 1018 30.06 848 25.04 11.1 52 37 -2.8 26.9
03:25 1018 30.06 848 25.04 11.2 52.1 37 -2.8 26.9
03:30 1018 30.06 848 25.04 11.1 52 38 -2.6 27.3
03:35 1018 30.06 847 25.01 11 51.8 38 -2.8 26.9
03:40 1018 30.06 847 25.01 11.1 52 38 -2.6 27.3
03:45 1018 30.06 847 25.01 11 51.7 38 -2.6 27.3
03:50 1018 30.06 847 25.01 10.7 51.3 40 -2.4 27.7
03:55 1018 30.06 847 25.01 10.5 51 39 -2.8 27
04:00 1018 30.06 847 25.01 10.8 51.4 38 -2.9 26.9
04:05 1018 30.06 847 25.01 11 51.8 37 -3 26.7
04:10 1018 30.06 847 25.01 11.2 52.1 37 -3.1 26.5
04:15 1018 30.06 847 25.01 11.4 52.4 37 -2.7 27.1
04:20 1018 30.06 847 25.01 11 51.8 38 -2.6 27.3
04:25 1018 30.06 847 25.01 11 51.9 37 -3 26.6
04:30 1018 30.06 847 25.01 11.3 52.3 37 -2.8 26.9
04:35 1018 30.06 847 25.01 11.2 52.2 38 -2.7 27.2
04:40 1018 30.06 847 25.01 11.1 52 37 -3.1 26.4
04:45 1018 30.06 847 25.01 11.4 52.5 36 -3.1 26.5
04:50 1018 30.06 847 25.01 11.5 52.7 36 -3 26.6
04:55 1018 30.06 847 25.01 11.4 52.5 37 -2.9 26.8
05:00 1018 30.06 847 25.01 11.2 52.1 37 -2.8 27
05:05 1018 30.06 847 25.01 11 51.7 38 -2.9 26.8
05:10 1018 30.06 847 25.01 10.9 51.7 39 -2.5 27.4
05:15 1018 30.06 847 25.01 10.3 50.6 40 -2.7 27.2
05:20 1018 30.06 847 25.01 10.2 50.3 39 -3 26.6
05:25 1018 30.06 847 25.01 10.5 50.8 38 -3 26.5
05:30 1018 30.06 847 25.01 10.7 51.2 38 -2.9 26.8
05:35 1018 30.06 847 25.01 10.6 51.1 38 -3 26.6
05:40 1018 30.06 847 25.01 10.7 51.2 38 -3 26.5
05:45 1018 30.06 847 25.01 10.7 51.3 38 -3 26.6
05:50 1018 30.06 847 25.01 10.8 51.4 38 -3 26.6
05:55 1018 30.06 847 25.01 11 51.7 37 -3.3 26.1
06:00 1018 30.06 847 25.01 11.3 52.3 37 -3 26.6
06:05 1018 30.06 847 25.01 11.5 52.7 36 -3 26.6
06:10 1018 30.06 847 25.01 11.8 53.2 36 -2.6 27.3
06:15 1018 30.06 847 25.01 11.9 53.5 36 -2.8 27
06:20 1018 30.06 847 25.01 12.2 53.9 36 -2.4 27.6
06:25 1018 30.06 847 25.01 12.2 54 36 -2.4 27.8
06:30 1018 30.06 847 25.01 12.4 54.3 35 -2.5 27.4
06:35 1018 30.06 847 25.01 12.8 55.1 34 -2.8 27
06:40 1018 30.06 847 25.01 13.1 55.5 33 -2.9 26.9
06:45 1018 30.06 847 25.01 13.3 56 33 -2.6 27.2
06:50 1018 30.06 847 25.01 13.7 56.7 33 -2.1 28.2
06:55 1018 30.06 847 25.01 13.9 57.1 33 -2 28.5
07:00 1018 30.06 847 25.01 14.1 57.5 33 -1.9 28.6
07:05 1018 30.06 847 25.01 14.4 57.9 33 -1.5 29.2
07:10 1017 30.03 847 25.01 14.7 58.5 33 -1.4 29.6
07:15 1017 30.03 847 25.01 15.1 59.1 32 -1.4 29.5
07:20 1017 30.03 847 25.01 15.4 59.7 31 -1.3 29.6
07:25 1017 30.03 846 24.98 15.8 60.5 30 -1.5 29.3
07:30 1017 30.03 846 24.98 16.3 61.3 30 -1 30.1
07:35 1017 30.03 846 24.98 16.7 62.1 30 -0.8 30.6
07:40 1017 30.03 846 24.98 16.7 62 29 -1.1 30
07:45 1017 30.03 846 24.98 17 62.6 28 -1.6 29.1
07:50 1017 30.03 846 24.98 17.6 63.6 27 -1.4 29.5
07:55 1017 30.03 846 24.98 18.1 64.6 27 -1 30.2
08:00 1017 30.03 846 24.98 18.6 65.5 26 -1.2 29.8
08:05 1017 30.03 846 24.98 18.4 65.1 26 -1.3 29.7
08:10 1017 30.03 846 24.98 18.8 65.8 25 -1.5 29.3
08:15 1017 30.03 846 24.98 18.8 65.9 25 -1.4 29.5
08:20 1017 30.03 846 24.98 19.3 66.8 24 -1.5 29.2
08:25 1017 30.03 846 24.98 19.9 67.8 24 -1.1 30.1
08:30 1017 30.03 846 24.98 20.5 68.9 24 -0.6 30.9
08:35 1017 30.03 846 24.98 20.9 69.6 23 -0.6 30.8
08:40 1017 30.03 846 24.98 20.9 69.5 26 1 33.7
08:45 1017 30.03 846 24.98 20.5 68.8 30 2.4 36.3
08:50 1017 30.03 846 24.98 19.9 67.8 29 1.6 34.9
08:55 1017 30.03 846 24.98 20.1 68.2 30 2.1 35.8
09:00 1017 30.03 846 24.98 20.2 68.4 28 1.4 34.5
09:05 1017 30.03 846 24.98 21.3 70.3 27 1.8 35.3
09:10 1017 30.03 846 24.98 20.2 68.3 30 2.1 35.7
09:15 1017 30.03 846 24.98 19.6 67.4 30 1.8 35.3
09:20 1017 30.03 846 24.98 20 68 31 2.4 36.2
09:25 1017 30.03 846 24.98 20.5 68.9 28 1.4 34.5
09:30 1016 30 846 24.98 20.4 68.8 27 1.1 33.9
09:35 1016 30 846 24.98 21.5 70.7 26 1.3 34.4
09:40 1016 30 846 24.98 21.1 70 26 1.1 34
09:45 1016 30 846 24.98 21.4 70.4 27 1.6 34.9
09:50 1016 30 845 24.95 21.4 70.5 26 1.5 34.7
09:55 1016 30 845 24.95 22.5 72.5 24 1 33.7
10:00 1016 30 845 24.95 23.2 73.7 25 2.3 36.1
10:05 1016 30 845 24.95 23.6 74.6 20 -0.6 30.9
10:10 1016 30 845 24.95 24.6 76.3 20 0.1 32.2
10:15 1016 30 845 24.95 24.8 76.7 20 0.3 32.5
10:20 1016 30 845 24.95 25 77 19 -0.1 31.9
10:25 1016 30 845 24.95 25.1 77.1 19 0.4 32.7
10:30 1016 30 845 24.95 25.2 77.3 20 0.7 33.3
10:35 1016 30 845 24.95 26 78.7 16 -1.9 28.6
10:40 1016 30 845 24.95 26.6 79.9 16 -1 30.2
10:45 1016 30 845 24.95 26.5 79.7 14 -2.8 27
10:50 1016 30 845 24.95 26.3 79.3 15 -2 28.4
10:55 1016 30 845 24.95 26 78.9 15 -1.9 28.5
11:00 1016 30 845 24.95 26.2 79.1 16 -1.7 29
11:05 1015 29.97 845 24.95 26.6 80 14 -2.5 27.6
11:10 1015 29.97 845 24.95 26.8 80.2 14 -2.7 27.1
11:15 1015 29.97 845 24.95 26.9 80.3 14 -2.4 27.6
11:20 1015 29.97 845 24.95 27.3 81.1 14 -2.7 27.2
11:25 1015 29.97 845 24.95 27.2 80.9 13 -3.1 26.4
11:30 1015 29.97 844 24.92 26.5 79.6 14 -2.6 27.3
11:35 1015 29.97 844 24.92 26.6 79.9 14 -2.6 27.3
11:40 1015 29.97 844 24.92 26.9 80.4 13 -3.2 26.2
11:45 1015 29.97 844 24.92 27.2 80.9 14 -2.6 27.2
11:50 1015 29.97 844 24.92 26.8 80.2 14 -2.6 27.3
11:55 1015 29.97 844 24.92 26.9 80.3 13 -3.1 26.3
12:00 1015 29.97 844 24.92 26.5 79.7 14 -3.1 26.5
12:05 1015 29.97 844 24.92 26.9 80.3 15 -2 28.4
12:10 1015 29.97 844 24.92 27.3 81.1 14 -2.3 27.8
12:15 1015 29.97 844 24.92 27.3 81.2 16 -0.8 30.6
12:20 1015 29.97 844 24.92 27 80.5 14 -2.1 28.3
12:25 1014 29.94 844 24.92 26.9 80.5 15 -1.9 28.5
12:30 1014 29.94 844 24.92 27.7 81.8 14 -1.5 29.3
12:35 1014 29.94 844 24.92 27.5 81.5 15 -1.6 29.1
12:40 1014 29.94 843 24.89 27.4 81.2 15 -1.7 29
12:45 1014 29.94 843 24.89 27.1 80.8 14 -2.8 26.9
12:50 1014 29.94 843 24.89 27.3 81.2 14 -2.7 27.1
12:55 1014 29.94 843 24.89 27.2 80.9 14 -2.3 27.8
13:00 1014 29.94 843 24.89 27.5 81.5 14 -1.7 29
13:05 1014 29.94 843 24.89 28 82.4 14 -1.8 28.8
13:10 1014 29.94 843 24.89 28.4 83.1 14 -1.8 28.7
13:15 1014 29.94 843 24.89 28.7 83.6 13 -2.1 28.1
13:20 1014 29.94 843 24.89 28.6 83.5 13 -1.8 28.8
13:25 1014 29.94 843 24.89 28.5 83.3 13 -2 28.4
13:30 1014 29.94 843 24.89 28.6 83.4 13 -2.2 28.1
13:35 1014 29.94 843 24.89 28.9 84 13 -1.6 29.1
13:40 1014 29.94 843 24.89 28.6 83.4 13 -2.3 27.9
13:45 1014 29.94 843 24.89 28.2 82.8 12 -3.7 25.4
13:50 1014 29.94 843 24.89 27.9 82.2 13 -3.1 26.5
13:55 1014 29.94 843 24.89 27.5 81.6 12 -3.9 25.1
14:00 1014 29.94 843 24.89 27.8 82 12 -3.9 25
14:05 1014 29.94 843 24.89 28 82.3 13 -3.2 26.3
14:10 1014 29.94 843 24.89 28.2 82.7 12 -3.2 26.3
14:15 1013 29.91 843 24.89 28.8 83.9 12 -3 26.7
14:20 1013 29.91 843 24.89 28.7 83.6 12 -2.7 27.1
14:25 1013 29.91 843 24.89 28.7 83.6 13 -2.6 27.3
14:30 1013 29.91 842 24.86 28.6 83.6 12 -3 26.7
14:35 1013 29.91 842 24.86 29.1 84.3 13 -2.2 28.1
14:40 1013 29.91 842 24.86 28.9 84 11 -3.7 25.4
14:45 1013 29.91 842 24.86 29.7 85.4 12 -2.3 27.9
14:50 1013 29.91 842 24.86 29.4 84.9 12 -2.4 27.7
14:55 1013 29.91 842 24.86 29 84.2 13 -2.2 28
15:00 1013 29.91 842 24.86 28.9 84.1 12 -3.2 26.3
15:05 1013 29.91 842 24.86 28.3 82.9 13 -2.7 27.2
15:10 1013 29.91 842 24.86 28.6 83.5 12 -3.5 25.8
15:15 1013 29.91 842 24.86 28.3 83 12 -3.7 25.4
15:20 1013 29.91 842 24.86 28.9 83.9 11 -4 24.8
15:25 1013 29.91 842 24.86 28.5 83.3 12 -2.8 26.9
15:30 1013 29.91 842 24.86 28.5 83.2 12 -3.3 26
15:35 1013 29.91 842 24.86 28.4 83.1 12 -3.4 25.9
15:40 1013 29.91 842 24.86 28.5 83.2 11 -4.5 24
15:45 1013 29.91 842 24.86 28.3 83 11 -4.5 24
15:50 1012 29.88 842 24.86 27.8 82.1 12 -4.1 24.6
15:55 1012 29.88 842 24.86 27.4 81.3 12 -4.3 24.3
16:00 1012 29.88 842 24.86 27.7 81.8 11 -5.2 22.7
16:05 1012 29.88 842 24.86 27.8 82 12 -4.3 24.3
16:10 1012 29.88 842 24.86 27.6 81.6 11 -4.7 23.5
16:15 1012 29.88 842 24.86 27.9 82.3 12 -4.2 24.4
16:20 1012 29.88 841 24.83 28.2 82.8 12 -3.3 26.1
16:25 1012 29.88 841 24.83 28.5 83.3 12 -3.6 25.5
16:30 1012 29.88 841 24.83 28.7 83.7 12 -3.2 26.2
16:35 1012 29.88 841 24.83 28.7 83.7 13 -2.6 27.4
16:40 1012 29.88 841 24.83 28.4 83.1 13 -2.2 28
16:45 1012 29.88 841 24.83 28.2 82.7 13 -2.1 28.2
16:50 1012 29.88 841 24.83 27.5 81.5 13 -3.1 26.3
16:55 1012 29.88 841 24.83 27.2 81 13 -3.1 26.4
17:00 1012 29.88 841 24.83 27.1 80.8 13 -3 26.5
17:05 1012 29.88 841 24.83 26.7 80.1 14 -2.6 27.3
17:10 1012 29.88 841 24.83 26.7 80.1 14 -2.3 27.8
17:15 1012 29.88 841 24.83 26.7 80.1 15 -2.1 28.2
17:20 1012 29.88 841 24.83 26.6 80 15 -2.1 28.2
17:25 1012 29.88 841 24.83 26.2 79.2 15 -2.3 27.9
17:30 1012 29.88 841 24.83 25.9 78.7 16 -2 28.5
17:35 1012 29.88 841 24.83 26 78.9 14 -3.4 26
17:40 1012 29.88 841 24.83 26.1 79 15 -2.6 27.4
17:45 1012 29.88 841 24.83 25.9 78.7 16 -1.9 28.5
17:50 1012 29.88 841 24.83 25.8 78.5 15 -2.9 26.8
17:55 1011 29.85 841 24.83 25.8 78.4 16 -2 28.4
18:00 1011 29.85 841 24.83 25.7 78.2 16 -2.2 28.1
18:05 1011 29.85 841 24.83 25.8 78.4 15 -2.3 27.9
18:10 1011 29.85 841 24.83 25.8 78.4 15 -2.4 27.8
18:15 1011 29.85 841 24.83 25.8 78.4 16 -1.8 28.7
18:20 1011 29.85 841 24.83 25.8 78.5 17 -1.2 29.9
18:25 1011 29.85 841 24.83 25.7 78.2 16 -1.6 29.2
18:30 1011 29.85 840 24.81 25.7 78.3 16 -1.3 29.6
18:35 1011 29.85 840 24.81 25.7 78.3 19 0.4 32.7
18:40 1011 29.85 840 24.81 25.7 78.2 15 -2.2 28
18:45 1011 29.85 840 24.81 25.7 78.3 17 -0.6 30.9
18:50 1011 29.85 840 24.81 25.7 78.2 15 -2.4 27.6
18:55 1011 29.85 840 24.81 25.5 77.9 15 -2.7 27.1
19:00 1011 29.85 840 24.81 25.2 77.3 17 -1.3 29.6
19:05 1011 29.85 840 24.81 24.8 76.7 18 -1 30.2
19:10 1011 29.85 840 24.81 24.5 76.2 18 -0.9 30.3
19:15 1011 29.85 840 24.81 24.4 75.9 18 -1.2 29.9
19:20 1011 29.85 840 24.81 24.2 75.6 16 -3.1 26.5
19:25 1011 29.85 840 24.81 24.2 75.5 16 -2.8 26.9
19:30 1011 29.85 840 24.81 24 75.3 16 -2.7 27.1
19:35 1011 29.85 840 24.81 23.7 74.7 17 -2.2 28.1
19:40 1011 29.85 840 24.81 23.4 74.1 19 -1.6 29.1
19:45 1011 29.85 840 24.81 22.9 73.3 20 -1.3 29.7
19:50 1011 29.85 840 24.81 22.4 72.4 23 0.5 33
19:55 1011 29.85 840 24.81 21.9 71.4 22 -0.5 31.1
20:00 1011 29.85 841 24.83 21.5 70.7 23 -0 31.9
20:05 1011 29.85 841 24.83 21.2 70.1 26 1.2 34.1
20:10 1011 29.85 841 24.83 20.8 69.4 25 0.2 32.3
20:15 1011 29.85 840 24.81 20.4 68.8 26 0.5 32.9
20:20 1011 29.85 841 24.83 20.1 68.2 27 0.6 33.1
20:25 1011 29.85 841 24.83 19.7 67.5 29 1.5 34.7
20:30 1011 29.85 841 24.83 19.4 66.9 31 1.8 35.2
20:35 1011 29.85 841 24.83 19.2 66.5 28 0.4 32.7
20:40 1011 29.85 841 24.83 19.1 66.3 28 0.2 32.3
20:45 1011 29.85 841 24.83 19 66.1 28 0.3 32.5
20:50 1012 29.88 841 24.83 18.7 65.6 29 0.3 32.5
20:55 1012 29.88 841 24.83 18.4 65.1 29 0.1 32.1
21:00 1012 29.88 841 24.83 18.3 64.9 29 0.1 32.1
21:05 1012 29.88 841 24.83 18.2 64.8 29 -0.1 31.7
21:10 1012 29.88 841 24.83 18.2 64.7 29 -0.2 31.7
21:15 1012 29.88 841 24.83 18.1 64.6 28 -0.6 30.9
21:20 1012 29.88 841 24.83 18.1 64.6 28 -0.5 31
21:25 1012 29.88 841 24.83 18.1 64.5 29 -0.1 31.9
21:30 1012 29.88 841 24.83 17.9 64.1 29 -0.3 31.5
21:35 1012 29.88 841 24.83 17.8 64 29 -0.2 31.7
21:40 1012 29.88 841 24.83 17.8 64 29 -0.2 31.6
21:45 1012 29.88 841 24.83 17.8 64 29 -0.3 31.4
21:50 1012 29.88 841 24.83 17.7 63.9 30 -0.1 31.9
21:55 1012 29.88 841 24.83 17.6 63.8 31 0.3 32.6
22:00 1012 29.88 841 24.83 17.3 63.1 31 0.1 32.2
22:05 1012 29.88 841 24.83 17.1 62.8 32 0.2 32.4
22:10 1012 29.88 841 24.83 17 62.7 31 -0.1 31.8
22:15 1012 29.88 841 24.83 17.1 62.8 30 -0.6 31
22:20 1012 29.88 841 24.83 17.3 63.1 31 0.1 32.2
22:25 1012 29.88 841 24.83 17 62.6 30 -0.6 30.9
22:30 1012 29.88 841 24.83 17 62.6 32 0.1 32.2
22:35 1011 29.85 841 24.83 16.9 62.4 31 -0 31.9
22:40 1012 29.88 841 24.83 16.9 62.5 31 -0 31.9
22:45 1012 29.88 841 24.83 16.9 62.4 31 -0 31.9
22:50 1012 29.88 841 24.83 16.6 61.9 32 0.1 32.2
22:55 1012 29.88 841 24.83 16.5 61.8 33 0.5 32.8
23:00 1011 29.85 841 24.83 16.5 61.7 33 0.1 32.2
23:05 1011 29.85 841 24.83 16.4 61.5 33 0.1 32.2
23:10 1011 29.85 841 24.83 16.2 61.1 34 0.4 32.8
23:15 1011 29.85 841 24.83 15.9 60.6 36 0.9 33.6
23:20 1011 29.85 841 24.83 15.6 60 36 0.8 33.5
23:25 1011 29.85 841 24.83 15.5 59.9 35 0.2 32.3
23:30 1011 29.85 841 24.83 16.1 61 32 -0.3 31.4
23:35 1011 29.85 841 24.83 16.3 61.3 33 0.2 32.3
23:40 1011 29.85 841 24.83 15.9 60.6 34 0 32
23:45 1011 29.85 841 24.83 15.7 60.3 35 0.4 32.8
23:50 1011 29.85 841 24.83 15.4 59.6 37 0.8 33.5
23:55 1011 29.85 841 24.83 15.3 59.5 36 0.5 32.9
24:00 1011 29.85 841 24.83 15.3 59.5 36 0.5 32.8